Terminal Aerodrome Forecast
Issued by NWS

Home | Current Version | Previous Version | Text Only | Print | Product List | Glossary Off
Versions: 1 2 3 4 5 6 7 8 9 10 11 12 13 14 15 16 17 18 19 20 21 22 23 24 25 26 27 28 29 30 31 32 33 34

000
FTUS43 KLOT 262200 AAC
TAFMDW
TAF AMD
KMDW 262201Z 2622/2718 34011KT P6SM FEW030 BKN050
     FM270200 33007KT P6SM FEW040
     FM271500 27009KT P6SM SKC=

USA.gov is the U.S. government's official web portal to all federal, state and local government web resources and services.